Time;durP1;ratioP1;P1;durP2;ratioP2;P2;SDS_P1;SDS_P2;PMS_P1;PMS_P2;Temp;Humidity;BMP_temperature;BMP_pressure;BME280_temperature;BME280_humidity;BME280_pressure;Samples;Min_cycle;Max_cycle;Signal;HPM_P1;HPM_P2
2021/07/20 00:00:22;;;;;;;;;;;;;;;;;;2104850;28;45410;-71
2021/07/20 00:01:23;;;;;;;;;;;;;;;;;;2105102;28;42737;-71
2021/07/20 00:02:27;;;;;;;;;;;;;;;;;;2104781;28;45872;-73
2021/07/20 00:03:28;;;;;;;;;;;;;;;;;;2105228;28;44271;-71
2021/07/20 00:04:30;;;;;;;;;;;;;;;;;;2105033;28;45352;-71
2021/07/20 00:05:31;;;;;;;;;;;;;;;;;;2105002;28;44136;-72
2021/07/20 00:06:33;;;;;;;;;;;;;;;;;;2096623;28;45895;-71
2021/07/20 00:07:34;;;;;;;;;;;;;;;;;;2104748;28;45929;-71
2021/07/20 00:08:35;;;;;;;;;;;;;;;;;;2104648;28;47038;-70
2021/07/20 00:09:37;;;;;;;;;;;;;;;;;;2105136;28;46609;-70
2021/07/20 00:10:43;;;;;;;;;;;;;;;;;;2104907;28;46311;-70
2021/07/20 00:11:44;;;;;;;;;;;;;;;;;;2104931;28;47293;-70
2021/07/20 00:12:46;;;;;;;;;;;;;;;;;;2105106;28;46791;-70
2021/07/20 00:13:47;;;;;;;;;;;;;;;;;;2104877;28;47307;-70
2021/07/20 00:14:49;;;;;;;;;;;;;;;;;;2104722;28;45171;-71
2021/07/20 00:15:55;;;;;;;;;;;;;;;;;;2105861;28;46173;-70
2021/07/20 00:16:57;;;;;;;;;;;;;;;;;;2106378;28;44758;-71
2021/07/20 00:17:59;;;;;;;;;;;;;;;;;;2106337;28;46013;-71
2021/07/20 00:19:01;;;;;;;;;;;;;;;;;;2106130;28;46956;-72
2021/07/20 00:20:05;;;;;;;;;;;;;;;;;;2106408;28;46948;-71
2021/07/20 00:21:08;;;;;;;;;;;;;;;;;;2106436;28;47262;-70
2021/07/20 00:22:09;;;;;;;;;;;;;;;;;;2106427;28;47958;-71
2021/07/20 00:23:11;;;;;;;;;;;;;;;;;;2106670;28;44119;-70
2021/07/20 00:24:12;;;;;;;;;;;;;;;;;;2106382;28;45742;-70
2021/07/20 00:25:14;;;;;;;;;;;;;;;;;;2097944;28;45646;-71
2021/07/20 00:26:17;;;;;;;;;;;;;;;;;;2098176;28;45930;-71
2021/07/20 00:27:19;;;;;;;;;;;;;;;;;;2106561;28;46960;-71
2021/07/20 00:28:20;;;;;;;;;;;;;;;;;;2107005;28;45455;-71
2021/07/20 00:29:22;;;;;;;;;;;;;;;;;;2106110;28;45297;-71
2021/07/20 00:30:23;;;;;;;;;;;;;;;;;;2106327;28;45295;-71
2021/07/20 00:31:25;;;;;;;;;;;;;;;;;;2107089;28;45189;-70
2021/07/20 00:32:26;;;;;;;;;;;;;;;;;;2106295;28;43694;-71
2021/07/20 00:33:28;;;;;;;;;;;;;;;;;;2098177;28;45252;-70
2021/07/20 00:34:29;;;;;;;;;;;;;;;;;;2106778;28;43497;-72
2021/07/20 00:35:31;;;;;;;;;;;;;;;;;;2106416;28;45144;-71
2021/07/20 00:36:32;;;;;;;;;;;;;;;;;;2106286;28;46300;-71
2021/07/20 00:37:34;;;;;;;;;;;;;;;;;;2106806;28;44061;-71
2021/07/20 00:38:35;;;;;;;;;;;;;;;;;;2106711;28;45251;-70
2021/07/20 00:39:37;;;;;;;;;;;;;;;;;;2107158;28;45333;-69
2021/07/20 00:40:39;;;;;;;;;;;;;;;;;;2106160;28;43907;-68
2021/07/20 00:41:40;;;;;;;;;;;;;;;;;;2106803;28;45070;-68
2021/07/20 00:42:41;;;;;;;;;;;;;;;;;;2106197;28;46537;-68
2021/07/20 00:43:43;;;;;;;;;;;;;;;;;;2106511;28;45150;-68
2021/07/20 00:44:45;;;;;;;;;;;;;;;;;;2106191;28;46317;-68
2021/07/20 00:45:46;;;;;;;;;;;;;;;;;;2106353;28;46692;-68
2021/07/20 00:46:48;;;;;;;;;;;;;;;;;;2106378;28;46394;-68
2021/07/20 00:47:49;;;;;;;;;;;;;;;;;;2106633;28;45290;-68
2021/07/20 00:48:50;;;;;;;;;;;;;;;;;;2106850;28;45239;-68
2021/07/20 00:49:52;;;;;;;;;;;;;;;;;;2106979;28;45375;-70
2021/07/20 00:50:53;;;;;;;;;;;;;;;;;;2106657;28;44882;-69
2021/07/20 00:51:55;;;;;;;;;;;;;;;;;;2097967;28;46789;-69
2021/07/20 00:52:56;;;;;;;;;;;;;;;;;;2106206;28;44102;-69
2021/07/20 00:53:58;;;;;;;;;;;;;;;;;;2098128;28;46798;-69
2021/07/20 00:55:00;;;;;;;;;;;;;;;;;;2106453;28;46393;-69
2021/07/20 00:56:01;;;;;;;;;;;;;;;;;;2107444;28;45501;-69
2021/07/20 00:57:03;;;;;;;;;;;;;;;;;;2106282;28;46450;-69
2021/07/20 00:58:06;;;;;;;;;;;;;;;;;;2106200;28;42672;-70
2021/07/20 00:59:07;;;;;;;;;;;;;;;;;;2106769;28;44124;-69
2021/07/20 01:00:10;;;;;;;;;;;;;;;;;;2106480;28;46630;-69
2021/07/20 01:01:12;;;;;;;;;;;;;;;;;;2114318;28;44124;-69
2021/07/20 01:02:14;;;;;;;;;;;;;;;;;;2114585;28;46676;-69
2021/07/20 01:03:16;;;;;;;;;;;;;;;;;;2114632;28;45538;-69
2021/07/20 01:04:18;;;;;;;;;;;;;;;;;;2106653;28;46680;-69
2021/07/20 01:05:21;;;;;;;;;;;;;;;;;;2114701;28;45360;-69
2021/07/20 01:06:23;;;;;;;;;;;;;;;;;;2106439;28;46670;-69
2021/07/20 01:07:26;;;;;;;;;;;;;;;;;;2106334;28;45344;-69
2021/07/20 01:08:28;;;;;;;;;;;;;;;;;;2114442;28;44608;-70
2021/07/20 01:09:30;;;;;;;;;;;;;;;;;;2114670;28;45447;-70
2021/07/20 01:10:32;;;;;;;;;;;;;;;;;;2106835;28;44312;-69
2021/07/20 01:11:35;;;;;;;;;;;;;;;;;;2106499;28;46982;-70
2021/07/20 01:12:38;;;;;;;;;;;;;;;;;;2114797;28;45934;-70
2021/07/20 01:13:40;;;;;;;;;;;;;;;;;;2114656;28;45807;-70
2021/07/20 01:14:42;;;;;;;;;;;;;;;;;;2114667;28;46146;-70
2021/07/20 01:15:44;;;;;;;;;;;;;;;;;;2114677;28;47247;-70
2021/07/20 01:16:46;;;;;;;;;;;;;;;;;;2114696;28;47194;-70
2021/07/20 01:17:47;;;;;;;;;;;;;;;;;;2114839;28;46172;-70
2021/07/20 01:18:50;;;;;;;;;;;;;;;;;;2114538;28;46964;-70
2021/07/20 01:19:53;;;;;;;;;;;;;;;;;;2114649;27;45921;-70
2021/07/20 01:20:55;;;;;;;;;;;;;;;;;;2115262;27;45774;-71
2021/07/20 01:21:57;;;;;;;;;;;;;;;;;;2115118;27;46974;-70
2021/07/20 01:23:17;;;;;;;;;;;;;;;;;;2115069;28;45770;-70
2021/07/20 01:24:18;;;;;;;;;;;;;;;;;;2115116;28;45875;-70
2021/07/20 01:25:20;;;;;;;;;;;;;;;;;;2114920;27;47096;-70
2021/07/20 01:26:21;;;;;;;;;;;;;;;;;;2114579;28;47070;-69
2021/07/20 01:27:23;;;;;;;;;;;;;;;;;;2105561;28;45681;-69
2021/07/20 01:28:25;;;;;;;;;;;;;;;;;;2114722;28;45715;-69
2021/07/20 01:29:27;;;;;;;;;;;;;;;;;;2115292;27;47079;-69
2021/07/20 01:30:30;;;;;;;;;;;;;;;;;;2114632;28;46095;-70
2021/07/20 01:31:33;;;;;;;;;;;;;;;;;;2114678;28;45738;-70
2021/07/20 01:32:35;;;;;;;;;;;;;;;;;;2114593;28;44881;-71
2021/07/20 01:33:39;;;;;;;;;;;;;;;;;;2106714;28;45939;-70
2021/07/20 01:34:42;;;;;;;;;;;;;;;;;;2114956;28;45263;-71
2021/07/20 01:35:46;;;;;;;;;;;;;;;;;;2114772;28;45326;-71
2021/07/20 01:36:49;;;;;;;;;;;;;;;;;;2114532;28;45556;-71
2021/07/20 01:37:51;;;;;;;;;;;;;;;;;;2106235;28;45495;-71
2021/07/20 01:38:55;;;;;;;;;;;;;;;;;;2106176;28;42656;-71
2021/07/20 01:39:57;;;;;;;;;;;;;;;;;;2106618;28;46516;-71
2021/07/20 01:41:00;;;;;;;;;;;;;;;;;;2114794;28;43517;-71
2021/07/20 01:42:02;;;;;;;;;;;;;;;;;;2114809;28;44720;-71
2021/07/20 01:43:07;;;;;;;;;;;;;;;;;;2114593;28;44139;-71
2021/07/20 01:44:11;;;;;;;;;;;;;;;;;;2115012;28;45178;-70
2021/07/20 01:45:13;;;;;;;;;;;;;;;;;;2114974;28;45026;-70
2021/07/20 01:46:15;;;;;;;;;;;;;;;;;;2106312;28;46373;-70
2021/07/20 01:47:20;;;;;;;;;;;;;;;;;;2106749;28;45246;-71
2021/07/20 01:48:27;;;;;;;;;;;;;;;;;;2114145;28;46501;-71
2021/07/20 01:49:28;;;;;;;;;;;;;;;;;;2114568;28;45250;-70
2021/07/20 01:50:30;;;;;;;;;;;;;;;;;;2114455;28;45497;-70
2021/07/20 01:51:32;;;;;;;;;;;;;;;;;;2114501;28;45074;-70
2021/07/20 01:52:34;;;;;;;;;;;;;;;;;;2114357;28;45257;-70
2021/07/20 01:53:36;;;;;;;;;;;;;;;;;;2114679;28;45318;-70
2021/07/20 01:54:41;;;;;;;;;;;;;;;;;;2114266;28;45295;-71
2021/07/20 01:55:42;;;;;;;;;;;;;;;;;;2115732;27;44076;-70
2021/07/20 01:56:45;;;;;;;;;;;;;;;;;;2114589;28;45582;-71
2021/07/20 01:57:47;;;;;;;;;;;;;;;;;;2106439;28;45517;-70
2021/07/20 01:58:48;;;;;;;;;;;;;;;;;;2114614;28;43056;-71
2021/07/20 01:59:50;;;;;;;;;;;;;;;;;;2114467;28;46612;-70
2021/07/20 02:00:54;;;;;;;;;;;;;;;;;;2109646;27;45356;-70
2021/07/20 02:02:06;;;;;;;;;;;;;;;;;;2105940;28;45195;-70
2021/07/20 02:08:28;;;;;;;;;;;;;;;;;;2107598;28;47013;-70
2021/07/20 02:09:30;;;;;;;;;;;;;;;;;;2106509;28;44017;-70
2021/07/20 02:10:32;;;;;;;;;;;;;;;;;;2098462;28;43629;-71
2021/07/20 02:11:36;;;;;;;;;;;;;;;;;;2106219;28;45481;-71
2021/07/20 02:12:41;;;;;;;;;;;;;;;;;;2106413;28;45793;-71
2021/07/20 02:13:55;;;;;;;;;;;;;;;;;;2107015;28;44169;-70
2021/07/20 02:14:57;;;;;;;;;;;;;;;;;;2105924;28;46785;-71
2021/07/20 02:15:59;;;;;;;;;;;;;;;;;;2097743;28;45268;-71
2021/07/20 02:17:01;;;;;;;;;;;;;;;;;;2097960;28;46494;-71
2021/07/20 02:18:03;;;;;;;;;;;;;;;;;;2097520;28;45430;-71
2021/07/20 02:19:07;;;;;;;;;;;;;;;;;;2106478;28;43264;-70
2021/07/20 02:20:11;;;;;;;;;;;;;;;;;;2105767;28;46134;-70
2021/07/20 02:21:13;;;;;;;;;;;;;;;;;;2097932;28;46072;-70
2021/07/20 02:22:19;;;;;;;;;;;;;;;;;;2097342;28;47058;-71
2021/07/20 02:23:21;;;;;;;;;;;;;;;;;;2098322;28;45750;-70
2021/07/20 02:24:30;;;;;;;;;;;;;;;;;;2105925;28;46920;-71
2021/07/20 02:25:32;;;;;;;;;;;;;;;;;;2105734;28;46175;-71
2021/07/20 02:26:54;;;;;;;;;;;;;;;;;;2099858;28;45792;-69
2021/07/20 02:27:55;;;;;;;;;;;;;;;;;;2099862;28;46569;-69
2021/07/20 02:28:57;;;;;;;;;;;;;;;;;;2096926;28;45760;-69
2021/07/20 02:30:00;;;;;;;;;;;;;;;;;;2105380;28;46944;-69
2021/07/20 02:31:03;;;;;;;;;;;;;;;;;;2105848;28;44833;-69
2021/07/20 02:32:06;;;;;;;;;;;;;;;;;;2097588;28;47350;-70
2021/07/20 02:33:08;;;;;;;;;;;;;;;;;;2105739;28;46142;-70
2021/07/20 02:34:10;;;;;;;;;;;;;;;;;;2105678;28;46081;-70
2021/07/20 02:35:15;;;;;;;;;;;;;;;;;;2105757;28;46919;-70
2021/07/20 02:36:18;;;;;;;;;;;;;;;;;;2114299;28;45858;-70
2021/07/20 02:37:21;;;;;;;;;;;;;;;;;;2113967;28;46979;-69
2021/07/20 02:38:22;;;;;;;;;;;;;;;;;;2104979;28;47526;-69
2021/07/20 02:39:24;;;;;;;;;;;;;;;;;;2104591;28;47060;-69
2021/07/20 02:40:27;;;;;;;;;;;;;;;;;;2105714;28;47029;-69
2021/07/20 02:41:29;;;;;;;;;;;;;;;;;;2114027;28;45905;-69
2021/07/20 02:42:31;;;;;;;;;;;;;;;;;;2105682;28;47358;-70
2021/07/20 02:43:34;;;;;;;;;;;;;;;;;;2097457;28;45180;-71
2021/07/20 02:44:38;;;;;;;;;;;;;;;;;;2105697;28;45302;-70
2021/07/20 02:45:40;;;;;;;;;;;;;;;;;;2106587;28;42224;-71
2021/07/20 02:46:42;;;;;;;;;;;;;;;;;;2106482;28;46390;-69
2021/07/20 02:47:44;;;;;;;;;;;;;;;;;;2105640;28;45485;-69
2021/07/20 02:48:46;;;;;;;;;;;;;;;;;;2105158;28;45316;-70
2021/07/20 02:49:49;;;;;;;;;;;;;;;;;;2105793;28;45594;-70
2021/07/20 02:50:51;;;;;;;;;;;;;;;;;;2105518;28;46471;-71
2021/07/20 02:51:53;;;;;;;;;;;;;;;;;;2097469;28;46447;-70
2021/07/20 02:52:55;;;;;;;;;;;;;;;;;;2097468;28;46525;-70
2021/07/20 02:53:58;;;;;;;;;;;;;;;;;;2105718;28;46487;-70
2021/07/20 02:55:00;;;;;;;;;;;;;;;;;;2105467;28;46671;-70
2021/07/20 02:56:03;;;;;;;;;;;;;;;;;;2113887;28;45684;-70
2021/07/20 02:57:05;;;;;;;;;;;;;;;;;;2113681;28;46615;-70
2021/07/20 02:58:06;;;;;;;;;;;;;;;;;;2105265;28;46379;-71
2021/07/20 02:59:10;;;;;;;;;;;;;;;;;;2105883;28;45175;-70
2021/07/20 03:00:12;;;;;;;;;;;;;;;;;;2113547;28;45282;-70
2021/07/20 03:01:15;;;;;;;;;;;;;;;;;;2105550;28;45398;-70
2021/07/20 03:02:17;;;;;;;;;;;;;;;;;;2113797;28;46716;-70
2021/07/20 03:03:19;;;;;;;;;;;;;;;;;;2114561;28;46751;-70
2021/07/20 03:04:20;;;;;;;;;;;;;;;;;;2114962;27;45275;-70
2021/07/20 03:05:22;;;;;;;;;;;;;;;;;;2114489;27;43991;-70
2021/07/20 03:06:25;;;;;;;;;;;;;;;;;;2114031;28;46493;-70
2021/07/20 03:07:27;;;;;;;;;;;;;;;;;;2105721;28;46750;-70
2021/07/20 03:08:29;;;;;;;;;;;;;;;;;;2105802;28;42836;-70
2021/07/20 03:09:32;;;;;;;;;;;;;;;;;;2105631;28;46726;-71
2021/07/20 03:10:34;;;;;;;;;;;;;;;;;;2114293;28;45266;-70
2021/07/20 03:11:37;;;;;;;;;;;;;;;;;;2105529;28;45573;-70
2021/07/20 03:12:42;;;;;;;;;;;;;;;;;;2113540;28;45270;-70
2021/07/20 03:13:45;;;;;;;;;;;;;;;;;;2113875;28;45610;-70
2021/07/20 03:14:47;;;;;;;;;;;;;;;;;;2113864;28;45437;-70
2021/07/20 03:15:49;;;;;;;;;;;;;;;;;;2113795;28;45604;-70
2021/07/20 03:16:51;;;;;;;;;;;;;;;;;;2105337;28;46555;-69
2021/07/20 03:17:53;;;;;;;;;;;;;;;;;;2113912;28;46475;-71
2021/07/20 03:18:55;;;;;;;;;;;;;;;;;;2113764;28;45721;-70
2021/07/20 03:19:58;;;;;;;;;;;;;;;;;;2105460;28;45264;-71
2021/07/20 03:20:59;;;;;;;;;;;;;;;;;;2113797;28;46750;-71
2021/07/20 03:22:04;;;;;;;;;;;;;;;;;;2113924;28;44236;-72
2021/07/20 03:23:06;;;;;;;;;;;;;;;;;;2114050;28;46499;-70
2021/07/20 03:24:08;;;;;;;;;;;;;;;;;;2105600;28;44103;-70
2021/07/20 03:25:11;;;;;;;;;;;;;;;;;;2113836;28;46498;-71
2021/07/20 03:26:14;;;;;;;;;;;;;;;;;;2106563;28;44365;-71
2021/07/20 03:27:16;;;;;;;;;;;;;;;;;;2105584;28;47137;-71
2021/07/20 03:28:17;;;;;;;;;;;;;;;;;;2105246;28;47143;-71
2021/07/20 03:29:20;;;;;;;;;;;;;;;;;;2105523;28;47318;-70
2021/07/20 03:30:24;;;;;;;;;;;;;;;;;;2112687;28;47150;-69
2021/07/20 03:31:25;;;;;;;;;;;;;;;;;;2105559;28;46849;-69
2021/07/20 03:32:28;;;;;;;;;;;;;;;;;;2105116;28;47214;-70
2021/07/20 03:33:31;;;;;;;;;;;;;;;;;;2105538;28;47037;-69
2021/07/20 03:34:34;;;;;;;;;;;;;;;;;;2105302;28;47131;-70
2021/07/20 03:35:37;;;;;;;;;;;;;;;;;;2097401;28;46070;-69
2021/07/20 03:36:39;;;;;;;;;;;;;;;;;;2097216;28;45787;-70
2021/07/20 03:37:41;;;;;;;;;;;;;;;;;;2105656;28;44824;-70
2021/07/20 03:38:44;;;;;;;;;;;;;;;;;;2105076;28;47283;-70
2021/07/20 03:39:45;;;;;;;;;;;;;;;;;;2097189;28;46204;-71
2021/07/20 03:40:48;;;;;;;;;;;;;;;;;;2096771;28;45799;-70
2021/07/20 03:41:49;;;;;;;;;;;;;;;;;;2105371;28;45770;-71
2021/07/20 03:42:52;;;;;;;;;;;;;;;;;;2105295;28;44757;-70
2021/07/20 03:43:54;;;;;;;;;;;;;;;;;;2105459;28;44438;-71
2021/07/20 03:44:55;;;;;;;;;;;;;;;;;;2096893;28;45876;-70
2021/07/20 03:45:59;;;;;;;;;;;;;;;;;;2097102;28;46946;-70
2021/07/20 03:47:01;;;;;;;;;;;;;;;;;;2096989;28;43829;-71
2021/07/20 03:48:02;;;;;;;;;;;;;;;;;;2104928;28;45893;-71
2021/07/20 03:49:04;;;;;;;;;;;;;;;;;;2105461;28;45846;-71
2021/07/20 03:50:06;;;;;;;;;;;;;;;;;;2097105;28;46458;-71
2021/07/20 03:51:07;;;;;;;;;;;;;;;;;;2106497;28;45106;-69
2021/07/20 03:52:10;;;;;;;;;;;;;;;;;;2106463;28;45307;-69
2021/07/20 03:53:12;;;;;;;;;;;;;;;;;;2098583;28;46693;-70
2021/07/20 03:54:14;;;;;;;;;;;;;;;;;;2098596;28;44071;-70
2021/07/20 03:55:19;;;;;;;;;;;;;;;;;;2106745;28;45283;-69
2021/07/20 03:56:21;;;;;;;;;;;;;;;;;;2107283;28;43889;-69
2021/07/20 03:57:23;;;;;;;;;;;;;;;;;;2106433;28;45301;-69
2021/07/20 03:58:25;;;;;;;;;;;;;;;;;;2106659;28;45275;-69
2021/07/20 03:59:32;;;;;;;;;;;;;;;;;;2106537;28;47038;-69
2021/07/20 04:00:34;;;;;;;;;;;;;;;;;;2100894;28;45244;-69
2021/07/20 04:01:38;;;;;;;;;;;;;;;;;;2106625;28;46479;-68
2021/07/20 04:02:59;;;;;;;;;;;;;;;;;;2106436;28;46801;-70
2021/07/20 04:04:01;;;;;;;;;;;;;;;;;;2106436;28;44306;-69
2021/07/20 04:05:03;;;;;;;;;;;;;;;;;;2106650;28;45124;-69
2021/07/20 04:06:09;;;;;;;;;;;;;;;;;;2106970;28;44120;-69
2021/07/20 04:07:17;;;;;;;;;;;;;;;;;;2114244;28;46413;-70
2021/07/20 04:08:19;;;;;;;;;;;;;;;;;;2114802;28;46690;-70
2021/07/20 04:09:21;;;;;;;;;;;;;;;;;;2106720;28;45220;-71
2021/07/20 04:10:22;;;;;;;;;;;;;;;;;;2106631;28;45274;-71
2021/07/20 04:11:25;;;;;;;;;;;;;;;;;;2107608;28;45244;-72
2021/07/20 04:12:26;;;;;;;;;;;;;;;;;;2107011;28;45431;-71
2021/07/20 04:13:29;;;;;;;;;;;;;;;;;;2106534;28;45356;-71
2021/07/20 04:14:31;;;;;;;;;;;;;;;;;;2106405;28;44448;-72
2021/07/20 04:15:32;;;;;;;;;;;;;;;;;;2106539;28;45702;-72
2021/07/20 04:16:34;;;;;;;;;;;;;;;;;;2106533;28;45282;-71
2021/07/20 04:17:37;;;;;;;;;;;;;;;;;;2114925;28;46829;-71
2021/07/20 04:18:39;;;;;;;;;;;;;;;;;;2114527;28;44137;-72
2021/07/20 04:19:42;;;;;;;;;;;;;;;;;;2106624;28;44126;-72
2021/07/20 04:20:44;;;;;;;;;;;;;;;;;;2106380;28;45677;-71
2021/07/20 04:21:45;;;;;;;;;;;;;;;;;;2106529;28;45319;-71
2021/07/20 04:22:47;;;;;;;;;;;;;;;;;;2106896;28;46624;-71
2021/07/20 04:23:50;;;;;;;;;;;;;;;;;;2106630;28;46441;-71
2021/07/20 04:24:51;;;;;;;;;;;;;;;;;;2106294;28;46492;-71
2021/07/20 04:25:53;;;;;;;;;;;;;;;;;;2106851;28;45271;-71
2021/07/20 04:26:58;;;;;;;;;;;;;;;;;;2115095;28;45693;-72
2021/07/20 04:28:02;;;;;;;;;;;;;;;;;;2115365;27;41864;-72
2021/07/20 04:29:03;;;;;;;;;;;;;;;;;;2106533;28;46613;-72
2021/07/20 04:30:09;;;;;;;;;;;;;;;;;;2107280;28;45469;-72
2021/07/20 04:31:12;;;;;;;;;;;;;;;;;;2107080;28;45265;-72
2021/07/20 04:32:16;;;;;;;;;;;;;;;;;;2106905;28;47027;-72
2021/07/20 04:33:24;;;;;;;;;;;;;;;;;;2106809;28;46561;-72
2021/07/20 04:34:26;;;;;;;;;;;;;;;;;;2106495;28;45772;-71
2021/07/20 04:35:28;;;;;;;;;;;;;;;;;;2106461;28;45758;-70
2021/07/20 04:36:30;;;;;;;;;;;;;;;;;;2114590;28;45815;-69
2021/07/20 04:37:31;;;;;;;;;;;;;;;;;;2106841;28;47441;-69
2021/07/20 04:38:35;;;;;;;;;;;;;;;;;;2106083;28;46979;-69
2021/07/20 04:39:37;;;;;;;;;;;;;;;;;;2105999;28;45872;-70
2021/07/20 04:40:39;;;;;;;;;;;;;;;;;;2106159;28;45880;-69
2021/07/20 04:41:41;;;;;;;;;;;;;;;;;;2106921;28;45844;-70
2021/07/20 04:42:42;;;;;;;;;;;;;;;;;;2114343;28;47102;-70
2021/07/20 04:43:45;;;;;;;;;;;;;;;;;;2106567;28;45696;-69
2021/07/20 04:44:47;;;;;;;;;;;;;;;;;;2106249;28;47073;-70
2021/07/20 04:45:50;;;;;;;;;;;;;;;;;;2114792;28;46975;-69
2021/07/20 04:46:52;;;;;;;;;;;;;;;;;;2114236;28;47319;-69
2021/07/20 04:47:53;;;;;;;;;;;;;;;;;;2106292;28;45806;-69
2021/07/20 04:48:55;;;;;;;;;;;;;;;;;;2106350;28;47030;-70
2021/07/20 04:49:56;;;;;;;;;;;;;;;;;;2114504;28;47028;-69
2021/07/20 04:50:58;;;;;;;;;;;;;;;;;;2106907;28;47612;-68
2021/07/20 04:52:00;;;;;;;;;;;;;;;;;;2114413;28;47346;-69
2021/07/20 04:53:03;;;;;;;;;;;;;;;;;;2114431;28;45291;-69
2021/07/20 04:54:05;;;;;;;;;;;;;;;;;;2097821;28;45850;-69
2021/07/20 04:55:07;;;;;;;;;;;;;;;;;;2098321;28;44616;-69
2021/07/20 04:56:09;;;;;;;;;;;;;;;;;;2106534;28;45789;-70
2021/07/20 04:57:10;;;;;;;;;;;;;;;;;;2106389;28;46374;-69
2021/07/20 04:58:12;;;;;;;;;;;;;;;;;;2114510;28;46445;-69
2021/07/20 04:59:14;;;;;;;;;;;;;;;;;;2106574;28;45094;-69
2021/07/20 05:00:15;;;;;;;;;;;;;;;;;;2106277;28;46465;-71
2021/07/20 05:01:17;;;;;;;;;;;;;;;;;;2114621;28;46344;-70
2021/07/20 05:02:20;;;;;;;;;;;;;;;;;;2105421;28;45154;-70
2021/07/20 05:03:23;;;;;;;;;;;;;;;;;;2106228;28;47685;-70
2021/07/20 05:04:26;;;;;;;;;;;;;;;;;;2098073;28;45142;-70
2021/07/20 05:05:29;;;;;;;;;;;;;;;;;;2098132;28;45077;-71
2021/07/20 05:06:31;;;;;;;;;;;;;;;;;;2106162;28;43960;-71
2021/07/20 05:07:33;;;;;;;;;;;;;;;;;;2107029;28;44407;-71
2021/07/20 05:08:35;;;;;;;;;;;;;;;;;;2106495;28;45296;-71
2021/07/20 05:09:37;;;;;;;;;;;;;;;;;;2106467;28;45261;-71
2021/07/20 05:10:43;;;;;;;;;;;;;;;;;;2106437;28;44211;-69
2021/07/20 05:11:45;;;;;;;;;;;;;;;;;;2106216;28;43555;-69
2021/07/20 05:12:47;;;;;;;;;;;;;;;;;;2106146;28;46585;-69
2021/07/20 05:13:49;;;;;;;;;;;;;;;;;;2115272;27;45347;-69
2021/07/20 05:14:51;;;;;;;;;;;;;;;;;;2114568;28;45727;-70
2021/07/20 05:16:05;;;;;;;;;;;;;;;;;;2108040;28;43552;-69
2021/07/20 05:17:09;;;;;;;;;;;;;;;;;;2114570;28;45638;-69
2021/07/20 05:18:11;;;;;;;;;;;;;;;;;;2106745;28;46183;-70
2021/07/20 05:19:13;;;;;;;;;;;;;;;;;;2106020;28;46631;-69
2021/07/20 05:20:16;;;;;;;;;;;;;;;;;;2106274;28;44345;-70
2021/07/20 05:21:19;;;;;;;;;;;;;;;;;;2106423;28;45185;-70
2021/07/20 05:22:21;;;;;;;;;;;;;;;;;;2114316;28;46428;-70
2021/07/20 05:23:22;;;;;;;;;;;;;;;;;;2114539;28;45369;-70
2021/07/20 05:24:24;;;;;;;;;;;;;;;;;;2114540;28;45335;-71
2021/07/20 05:25:25;;;;;;;;;;;;;;;;;;2114370;28;46503;-72
2021/07/20 05:26:28;;;;;;;;;;;;;;;;;;2115111;27;45276;-71
2021/07/20 05:27:36;;;;;;;;;;;;;;;;;;2114688;27;46670;-71
2021/07/20 05:28:38;;;;;;;;;;;;;;;;;;2114278;28;45334;-70
2021/07/20 05:29:40;;;;;;;;;;;;;;;;;;2114432;28;44164;-71
2021/07/20 05:30:42;;;;;;;;;;;;;;;;;;2115183;27;45431;-70
2021/07/20 05:31:44;;;;;;;;;;;;;;;;;;2114553;28;45264;-70
2021/07/20 05:32:46;;;;;;;;;;;;;;;;;;2106062;28;42905;-70
2021/07/20 05:33:48;;;;;;;;;;;;;;;;;;2114494;28;45615;-70
2021/07/20 05:34:49;;;;;;;;;;;;;;;;;;2106266;28;45428;-69
2021/07/20 05:35:55;;;;;;;;;;;;;;;;;;2114440;28;46570;-70
2021/07/20 05:36:57;;;;;;;;;;;;;;;;;;2114454;28;45686;-70
2021/07/20 05:37:58;;;;;;;;;;;;;;;;;;2106112;28;45258;-71
2021/07/20 05:39:00;;;;;;;;;;;;;;;;;;2114554;28;45426;-71
2021/07/20 05:40:02;;;;;;;;;;;;;;;;;;2114752;28;45304;-71
2021/07/20 05:41:03;;;;;;;;;;;;;;;;;;2106154;28;45841;-71
2021/07/20 05:42:06;;;;;;;;;;;;;;;;;;2105865;28;47031;-70
2021/07/20 05:43:08;;;;;;;;;;;;;;;;;;2105820;28;47258;-71
2021/07/20 05:44:10;;;;;;;;;;;;;;;;;;2114489;28;44652;-70
2021/07/20 05:45:12;;;;;;;;;;;;;;;;;;2115037;27;47523;-70
2021/07/20 05:46:13;;;;;;;;;;;;;;;;;;2114127;28;46988;-71
2021/07/20 05:47:18;;;;;;;;;;;;;;;;;;2106457;28;47087;-70
2021/07/20 05:48:30;;;;;;;;;;;;;;;;;;2114177;28;45820;-71
2021/07/20 05:49:32;;;;;;;;;;;;;;;;;;2108873;28;47175;-71
2021/07/20 05:50:36;;;;;;;;;;;;;;;;;;2105866;28;46956;-69
2021/07/20 05:51:38;;;;;;;;;;;;;;;;;;2106141;28;44562;-70
2021/07/20 05:52:41;;;;;;;;;;;;;;;;;;2105701;28;45732;-68
2021/07/20 05:53:43;;;;;;;;;;;;;;;;;;2097880;28;45980;-70
2021/07/20 05:54:45;;;;;;;;;;;;;;;;;;2105696;28;45828;-66
2021/07/20 05:55:50;;;;;;;;;;;;;;;;;;2105803;28;45735;-66
2021/07/20 05:56:52;;;;;;;;;;;;;;;;;;2098258;28;44367;-66
2021/07/20 05:57:54;;;;;;;;;;;;;;;;;;2105958;28;46990;-66
2021/07/20 05:59:02;;;;;;;;;;;;;;;;;;2106472;28;45859;-66
2021/07/20 06:00:07;;;;;;;;;;;;;;;;;;2106815;28;47233;-66
2021/07/20 06:01:09;;;;;;;;;;;;;;;;;;2106090;28;47332;-67
2021/07/20 06:02:11;;;;;;;;;;;;;;;;;;2105969;28;45897;-66
2021/07/20 06:03:17;;;;;;;;;;;;;;;;;;2106558;28;43903;-66
2021/07/20 06:04:19;;;;;;;;;;;;;;;;;;2105836;28;44199;-66
2021/07/20 06:05:21;;;;;;;;;;;;;;;;;;2097216;28;46505;-67
2021/07/20 06:06:26;;;;;;;;;;;;;;;;;;2105730;28;43721;-66
2021/07/20 06:07:29;;;;;;;;;;;;;;;;;;2097941;28;44436;-66
2021/07/20 06:08:32;;;;;;;;;;;;;;;;;;2105666;28;44087;-66
2021/07/20 06:09:35;;;;;;;;;;;;;;;;;;2105779;28;44612;-66
2021/07/20 06:10:36;;;;;;;;;;;;;;;;;;2106091;28;45238;-66
2021/07/20 06:11:40;;;;;;;;;;;;;;;;;;2113348;28;45183;-66
2021/07/20 06:12:42;;;;;;;;;;;;;;;;;;2114015;28;46624;-66
2021/07/20 06:13:44;;;;;;;;;;;;;;;;;;2113857;28;46609;-66
2021/07/20 06:14:46;;;;;;;;;;;;;;;;;;2114001;28;46100;-66
2021/07/20 06:15:48;;;;;;;;;;;;;;;;;;2114055;28;47073;-66
2021/07/20 06:16:50;;;;;;;;;;;;;;;;;;2114101;28;45278;-66
2021/07/20 06:17:51;;;;;;;;;;;;;;;;;;2114018;28;45064;-66
2021/07/20 06:18:53;;;;;;;;;;;;;;;;;;2114456;27;46401;-66
2021/07/20 06:19:58;;;;;;;;;;;;;;;;;;2114682;27;45188;-66
2021/07/20 06:21:02;;;;;;;;;;;;;;;;;;2114122;28;46383;-66
2021/07/20 06:22:11;;;;;;;;;;;;;;;;;;2113836;28;44995;-66
2021/07/20 06:23:12;;;;;;;;;;;;;;;;;;2114182;28;45246;-66
2021/07/20 06:24:14;;;;;;;;;;;;;;;;;;2106099;28;45006;-66
2021/07/20 06:25:16;;;;;;;;;;;;;;;;;;2106089;28;46509;-66
2021/07/20 06:26:18;;;;;;;;;;;;;;;;;;2114111;28;44827;-66
2021/07/20 06:27:21;;;;;;;;;;;;;;;;;;2113999;28;46441;-66
2021/07/20 06:28:23;;;;;;;;;;;;;;;;;;2113790;28;45525;-66
2021/07/20 06:29:25;;;;;;;;;;;;;;;;;;2105905;28;44109;-66
2021/07/20 06:30:27;;;;;;;;;;;;;;;;;;2113941;28;46904;-67
2021/07/20 06:31:30;;;;;;;;;;;;;;;;;;2114683;27;45271;-65
2021/07/20 06:32:32;;;;;;;;;;;;;;;;;;2113641;28;45716;-69
2021/07/20 06:33:34;;;;;;;;;;;;;;;;;;2113991;28;46857;-69
2021/07/20 06:34:37;;;;;;;;;;;;;;;;;;2113871;28;45269;-68
2021/07/20 06:35:40;;;;;;;;;;;;;;;;;;2105739;28;46404;-69
2021/07/20 06:36:42;;;;;;;;;;;;;;;;;;2113907;28;46494;-69
2021/07/20 06:37:47;;;;;;;;;;;;;;;;;;2105769;28;44795;-67
2021/07/20 06:38:49;;;;;;;;;;;;;;;;;;2113874;28;46815;-67
2021/07/20 06:39:50;;;;;;;;;;;;;;;;;;2113818;28;46477;-68
2021/07/20 06:40:53;;;;;;;;;;;;;;;;;;2105367;28;46533;-68
2021/07/20 06:41:56;;;;;;;;;;;;;;;;;;2113907;28;48177;-68
2021/07/20 06:42:58;;;;;;;;;;;;;;;;;;2113502;28;45666;-68
2021/07/20 06:44:01;;;;;;;;;;;;;;;;;;2114003;28;44448;-67
2021/07/20 06:45:02;;;;;;;;;;;;;;;;;;2105818;28;45626;-67
2021/07/20 06:46:06;;;;;;;;;;;;;;;;;;2113991;28;45419;-68
2021/07/20 06:47:08;;;;;;;;;;;;;;;;;;2114761;27;46864;-67
2021/07/20 06:48:14;;;;;;;;;;;;;;;;;;2113446;28;47307;-67
2021/07/20 06:49:17;;;;;;;;;;;;;;;;;;2113979;28;45815;-67
2021/07/20 06:50:19;;;;;;;;;;;;;;;;;;2113801;28;45892;-67
2021/07/20 06:51:20;;;;;;;;;;;;;;;;;;2105688;28;47016;-68
2021/07/20 06:52:22;;;;;;;;;;;;;;;;;;2113595;28;45878;-67
2021/07/20 06:53:23;;;;;;;;;;;;;;;;;;2105558;28;45876;-67
2021/07/20 06:54:25;;;;;;;;;;;;;;;;;;2105234;28;45791;-67
2021/07/20 06:55:28;;;;;;;;;;;;;;;;;;2105583;28;46933;-67
2021/07/20 06:56:35;;;;;;;;;;;;;;;;;;2113830;28;47443;-67
2021/07/20 06:57:37;;;;;;;;;;;;;;;;;;2113938;28;45860;-67
2021/07/20 06:58:40;;;;;;;;;;;;;;;;;;2113349;28;44721;-68
2021/07/20 06:59:42;;;;;;;;;;;;;;;;;;2105729;28;44709;-68
2021/07/20 07:00:47;;;;;;;;;;;;;;;;;;2113606;28;46144;-67
2021/07/20 07:01:49;;;;;;;;;;;;;;;;;;2113829;28;44561;-68
2021/07/20 07:03:01;;;;;;;;;;;;;;;;;;2113544;28;46926;-67
2021/07/20 07:04:22;;;;;;;;;;;;;;;;;;2113911;28;47072;-68
2021/07/20 07:05:25;;;;;;;;;;;;;;;;;;2113905;28;47073;-68
2021/07/20 07:06:28;;;;;;;;;;;;;;;;;;2114583;27;44384;-68
2021/07/20 07:07:30;;;;;;;;;;;;;;;;;;2113796;28;46052;-67
2021/07/20 07:08:32;;;;;;;;;;;;;;;;;;2105231;28;47382;-67
2021/07/20 07:09:34;;;;;;;;;;;;;;;;;;2113755;28;46993;-67
2021/07/20 07:10:36;;;;;;;;;;;;;;;;;;2114805;27;45818;-68
2021/07/20 07:11:39;;;;;;;;;;;;;;;;;;2114366;27;45310;-67
2021/07/20 07:12:42;;;;;;;;;;;;;;;;;;2113626;28;46456;-68
2021/07/20 07:13:44;;;;;;;;;;;;;;;;;;2113640;28;45330;-68